Time;durP1;ratioP1;P1;durP2;ratioP2;P2;SDS_P1;SDS_P2;PMS_P1;PMS_P2;Temp;Humidity;BMP_temperature;BMP_pressure;BME280_temperature;BME280_humidity;BME280_pressure;Samples;Min_cycle;Max_cycle;Signal;HPM_P1;HPM_P2
2021/01/03 00:01:07;;;;;;;10.30;5.72;;;;;;;16.59;53.82;101658.25;4929006;29;20427;-79
2021/01/03 00:03:32;;;;;;;8.88;5.75;;;;;;;16.59;53.95;101660.84;4944668;29;20041;-79
2021/01/03 00:05:57;;;;;;;8.43;5.93;;;;;;;16.59;53.83;101659.94;4932850;29;20032;-79
2021/01/03 00:08:23;;;;;;;8.52;6.15;;;;;;;16.58;53.72;101659.09;4893336;29;20028;-79
2021/01/03 00:10:48;;;;;;;9.98;5.70;;;;;;;16.56;53.98;101655.59;4916382;29;20035;-79
2021/01/03 00:13:14;;;;;;;8.77;5.65;;;;;;;16.58;53.69;101661.69;4931627;29;20016;-79
2021/01/03 00:15:39;;;;;;;7.72;5.32;;;;;;;16.57;53.80;101659.06;4906866;29;20043;-79
2021/01/03 00:18:05;;;;;;;7.78;5.70;;;;;;;16.57;53.65;101662.56;4915899;29;20032;-79
2021/01/03 00:20:30;;;;;;;9.88;5.75;;;;;;;16.56;53.76;101663.41;4904957;29;20042;-79
2021/01/03 00:22:56;;;;;;;8.43;5.40;;;;;;;16.56;53.60;101660.81;4934571;29;20038;-79
2021/01/03 00:25:25;;;;;;;7.07;5.30;;;;;;;16.56;53.65;101657.34;4927526;29;20032;-79
2021/01/03 00:27:50;;;;;;;8.40;5.53;;;;;;;16.56;53.74;101657.34;4928160;29;20050;-79
2021/01/03 00:30:19;;;;;;;8.48;5.90;;;;;;;16.55;53.69;101652.97;4903583;29;20036;-79
2021/01/03 00:32:45;;;;;;;7.97;5.35;;;;;;;16.54;53.71;101661.66;4941584;29;20031;-79
2021/01/03 00:35:14;;;;;;;7.43;5.65;;;;;;;16.55;53.63;101660.78;4909843;29;20118;-79
2021/01/03 00:37:39;;;;;;;7.82;5.85;;;;;;;16.55;53.82;101660.78;4938493;29;20028;-79
2021/01/03 00:40:09;;;;;;;9.40;5.47;;;;;;;16.55;53.32;101663.38;4954713;29;20039;-79
2021/01/03 00:42:35;;;;;;;7.57;5.40;;;;;;;16.54;53.66;101667.72;4932866;29;20023;-79
2021/01/03 00:45:00;;;;;;;8.63;5.70;;;;;;;16.54;53.62;101665.13;4927152;29;20390;-79
2021/01/03 00:47:26;;;;;;;7.93;5.55;;;;;;;16.54;53.33;101664.25;4907924;29;20039;-79
2021/01/03 00:49:51;;;;;;;6.93;5.45;;;;;;;16.53;53.58;101660.78;4937598;29;20023;-79
2021/01/03 00:52:16;;;;;;;9.60;5.70;;;;;;;16.53;53.57;101663.38;4926612;29;20036;-79
2021/01/03 00:54:42;;;;;;;8.27;5.05;;;;;;;16.53;53.64;101665.13;4889367;29;20035;-78
2021/01/03 00:57:07;;;;;;;7.72;5.30;;;;;;;16.53;53.46;101668.59;4897649;29;20040;-79
2021/01/03 00:59:32;;;;;;;8.07;5.45;;;;;;;16.53;53.62;101670.31;4924298;29;20054;-79
2021/01/03 01:01:58;;;;;;;7.53;5.20;;;;;;;16.53;53.43;101678.97;4906420;29;20070;-79
2021/01/03 01:04:23;;;;;;;7.75;5.15;;;;;;;16.53;53.62;101670.31;4909430;29;20028;-79
2021/01/03 01:06:48;;;;;;;6.53;4.80;;;;;;;16.51;53.36;101667.69;4942568;29;20035;-79
2021/01/03 01:09:14;;;;;;;8.30;5.68;;;;;;;16.52;53.40;101669.44;4912216;29;20153;-79
2021/01/03 01:11:41;;;;;;;7.07;5.30;;;;;;;16.52;53.52;101669.44;4923429;29;20364;-79
2021/01/03 01:14:07;;;;;;;7.07;5.00;;;;;;;16.51;53.20;101678.09;4934811;29;20027;-79
2021/01/03 01:16:34;;;;;;;7.40;5.45;;;;;;;16.51;53.16;101672.91;4934146;29;20031;-79
2021/01/03 01:18:59;;;;;;;7.47;5.80;;;;;;;16.50;53.46;101668.53;4921676;29;20023;-79
2021/01/03 01:21:25;;;;;;;6.35;4.50;;;;;;;16.50;53.38;101671.13;4890671;29;20032;-79
2021/01/03 01:23:50;;;;;;;5.97;4.93;;;;;;;16.50;53.23;101678.94;4924241;29;20044;-79
2021/01/03 01:26:15;;;;;;;6.97;5.28;;;;;;;16.50;53.21;101673.72;4925128;29;20030;-79
2021/01/03 01:28:41;;;;;;;5.97;4.82;;;;;;;16.50;53.44;101673.72;4917512;29;20114;-79
2021/01/03 01:31:06;;;;;;;7.10;4.47;;;;;;;16.49;53.02;101674.59;4930503;29;20442;-79
2021/01/03 01:33:32;;;;;;;6.22;5.15;;;;;;;16.48;53.31;101670.25;4910099;29;20088;-79
2021/01/03 01:35:57;;;;;;;6.63;5.13;;;;;;;16.49;53.44;101673.75;4931669;29;20039;-79
2021/01/03 01:38:22;;;;;;;6.07;4.63;;;;;;;16.50;53.37;101671.13;4928852;29;20039;-79
2021/01/03 01:40:48;;;;;;;6.30;4.60;;;;;;;16.49;53.09;101669.41;4914643;29;20038;-79
2021/01/03 01:43:16;;;;;;;7.80;5.25;;;;;;;16.50;53.22;101670.28;4900811;29;20546;-79
2021/01/03 01:45:43;;;;;;;6.53;5.00;;;;;;;16.49;53.24;101676.34;4952365;29;20047;-79
2021/01/03 01:48:15;;;;;;;6.05;4.68;;;;;;;16.48;53.24;101667.66;4938186;29;20035;-79
2021/01/03 01:50:43;;;;;;;6.43;4.97;;;;;;;16.47;53.32;101667.66;4922377;29;20032;-79
2021/01/03 01:53:19;;;;;;;6.88;4.97;;;;;;;16.47;53.20;101668.53;4929613;29;20024;-79
2021/01/03 01:55:53;;;;;;;5.75;4.57;;;;;;;16.47;53.21;101665.94;4918490;29;20055;-79
2021/01/03 01:58:37;;;;;;;5.90;4.68;;;;;;;16.47;53.17;101671.13;4928807;29;20050;-79
2021/01/03 02:01:10;;;;;;;7.50;4.80;;;;;;;16.47;53.18;101671.13;4936708;29;20038;-79
2021/01/03 02:03:54;;;;;;;6.00;4.75;;;;;;;16.47;53.09;101680.66;4942692;29;20028;-79
2021/01/03 02:06:39;;;;;;;6.15;4.90;;;;;;;16.46;53.12;101679.75;4943473;29;20073;-79
2021/01/03 02:09:22;;;;;;;5.68;4.60;;;;;;;16.46;53.02;101679.75;4943688;29;20031;-79
2021/01/03 02:11:47;;;;;;;5.75;4.53;;;;;;;16.46;53.09;101684.97;4941926;29;20450;-79
2021/01/03 02:14:13;;;;;;;6.10;4.70;;;;;;;16.45;53.03;101678.03;4938251;29;20059;-79
2021/01/03 02:16:39;;;;;;;6.50;4.40;;;;;;;16.46;52.84;101671.97;4926186;29;20043;-79
2021/01/03 02:19:15;;;;;;;5.15;4.40;;;;;;;16.45;53.18;101678.03;4912190;29;20032;-79
2021/01/03 02:22:22;;;;;;;5.90;4.60;;;;;;;16.45;52.93;101684.09;4947327;29;20023;-79
2021/01/03 02:25:02;;;;;;;6.68;4.90;;;;;;;16.44;53.04;101684.97;4934605;29;20070;-79
2021/01/03 02:27:47;;;;;;;6.25;4.20;;;;;;;16.45;52.94;101680.63;4928377;29;20466;-79
2021/01/03 02:30:14;;;;;;;6.50;4.40;;;;;;;16.43;53.21;101677.16;4966583;29;20073;-79
2021/01/03 02:32:48;;;;;;;4.95;4.28;;;;;;;16.44;52.91;101681.50;4931583;29;20023;-79
2021/01/03 02:35:14;;;;;;;;;;;;;;;16.44;53.02;101691.91;4921984;29;20039;-79
2021/01/03 02:37:45;;;;;;;6.43;4.90;;;;;;;16.44;53.00;101694.50;4935031;29;19914;-79
2021/01/03 02:40:23;;;;;;;5.65;4.18;;;;;;;16.42;52.90;101694.47;4939679;29;20111;-79
2021/01/03 02:42:49;;;;;;;6.53;4.63;;;;;;;16.43;53.03;101696.19;4947013;28;20082;-79
2021/01/03 02:45:17;;;;;;;5.68;4.57;;;;;;;16.43;52.90;101690.13;4923512;29;20107;-79
2021/01/03 02:47:43;;;;;;;5.93;4.28;;;;;;;16.41;52.75;101686.66;4945486;28;20114;-79
2021/01/03 02:50:12;;;;;;;5.00;3.95;;;;;;;16.42;52.72;101686.69;4923497;29;20063;-79
2021/01/03 02:52:41;;;;;;;5.65;4.40;;;;;;;16.43;53.12;101687.53;4947225;29;20106;-79
2021/01/03 02:55:08;;;;;;;5.72;4.55;;;;;;;16.42;52.62;101697.06;4949072;29;20027;-81
2021/01/03 02:57:34;;;;;;;5.22;4.13;;;;;;;16.41;52.63;101691.84;4927433;29;20031;-81
2021/01/03 02:59:59;;;;;;;6.22;4.45;;;;;;;16.40;52.71;101674.53;4924508;29;20390;-81
2021/01/03 03:02:25;;;;;;;5.28;4.28;;;;;;;16.43;52.65;101684.94;4896877;29;20503;-81
2021/01/03 03:04:50;;;;;;;6.07;4.50;;;;;;;16.40;52.58;101677.13;4924714;29;20027;-81
2021/01/03 03:07:16;;;;;;;5.32;4.20;;;;;;;16.39;52.34;101681.44;4922195;29;20083;-81
2021/01/03 03:09:42;;;;;;;6.75;4.88;;;;;;;16.40;52.73;101682.34;4910766;29;20036;-81
2021/01/03 03:12:07;;;;;;;5.35;4.22;;;;;;;16.39;52.71;101677.97;4941422;29;20027;-81
2021/01/03 03:14:33;;;;;;;5.82;4.25;;;;;;;16.39;52.50;101675.38;4932403;28;20034;-81
2021/01/03 03:16:59;;;;;;;6.22;4.05;;;;;;;16.39;52.77;101678.84;4925553;29;20027;-79
2021/01/03 03:19:25;;;;;;;6.22;4.65;;;;;;;16.38;52.50;101677.13;4923064;29;20031;-79
2021/01/03 03:21:52;;;;;;;5.18;4.25;;;;;;;16.39;52.68;101675.38;4951388;28;20419;-79
2021/01/03 03:24:18;;;;;;;5.95;4.32;;;;;;;16.39;52.47;101670.19;4939884;29;20043;-79
2021/01/03 03:26:52;;;;;;;5.25;3.88;;;;;;;16.38;52.84;101664.13;4935767;28;20502;-79
2021/01/03 03:29:17;;;;;;;7.50;4.50;;;;;;;16.39;52.39;101672.78;4935599;29;20079;-79
2021/01/03 03:31:43;;;;;;;5.45;4.07;;;;;;;16.38;52.51;101668.47;4931352;29;20032;-79
2021/01/03 03:34:08;;;;;;;4.57;4.10;;;;;;;16.38;52.75;101671.06;4938899;29;20039;-79
2021/01/03 03:36:33;;;;;;;5.45;4.00;;;;;;;16.38;52.40;101677.13;4934519;29;20051;-79
2021/01/03 03:38:59;;;;;;;5.53;4.53;;;;;;;16.38;52.79;101671.06;4933638;29;20050;-78
2021/01/03 03:41:26;;;;;;;4.30;3.90;;;;;;;16.38;52.65;101665.84;4922243;29;20023;-79
2021/01/03 03:43:52;;;;;;;5.18;4.10;;;;;;;16.38;52.11;101665.84;4916907;29;20406;-79
2021/01/03 03:46:17;;;;;;;5.25;4.15;;;;;;;16.35;52.75;101665.81;4900081;29;20044;-79
2021/01/03 03:48:43;;;;;;;4.70;4.03;;;;;;;16.36;52.47;101668.44;4901573;29;20492;-79
2021/01/03 03:51:14;;;;;;;4.68;3.97;;;;;;;16.37;52.29;101669.28;4893932;29;20048;-78
2021/01/03 03:53:39;;;;;;;5.68;4.07;;;;;;;16.36;52.40;101673.63;4907386;29;20091;-79
2021/01/03 03:56:05;;;;;;;5.10;3.92;;;;;;;16.36;52.69;101670.16;4912846;29;20060;-78
2021/01/03 03:58:30;;;;;;;4.82;4.00;;;;;;;16.35;52.61;101671.91;4887837;29;20032;-79
2021/01/03 04:00:55;;;;;;;5.80;4.20;;;;;;;16.35;52.54;101674.50;4892826;29;20131;-78
2021/01/03 04:03:21;;;;;;;5.55;4.15;;;;;;;16.35;52.32;101671.91;4906274;29;20120;-79
2021/01/03 04:05:47;;;;;;;5.10;4.18;;;;;;;16.34;52.24;101677.94;4903246;29;20032;-79
2021/01/03 04:08:14;;;;;;;5.10;3.97;;;;;;;16.35;52.66;101679.69;4884220;29;20036;-79
2021/01/03 04:10:40;;;;;;;5.00;3.65;;;;;;;16.34;52.55;101675.34;4910027;29;20167;-79
2021/01/03 04:13:07;;;;;;;5.70;4.20;;;;;;;16.33;52.38;101672.72;4888552;29;20028;-79
2021/01/03 04:15:32;;;;;;;4.85;3.85;;;;;;;16.33;52.25;101670.13;4904524;29;20110;-77
2021/01/03 04:17:58;;;;;;;5.75;3.97;;;;;;;16.33;52.25;101673.63;4895680;29;20051;-79
2021/01/03 04:20:23;;;;;;;5.00;4.00;;;;;;;16.33;52.40;101686.59;4908394;29;20407;-79
2021/01/03 04:22:48;;;;;;;3.95;3.40;;;;;;;16.33;52.59;101684.00;4892669;29;20412;-79
2021/01/03 04:25:15;;;;;;;4.80;4.22;;;;;;;16.32;52.18;101671.84;4870373;29;20033;-79
2021/01/03 04:27:41;;;;;;;5.07;4.40;;;;;;;16.32;52.39;101674.44;4904224;29;20484;-79
2021/01/03 04:30:07;;;;;;;4.70;4.10;;;;;;;16.31;52.08;101670.13;4901488;29;20040;-79
2021/01/03 04:32:33;;;;;;;4.50;3.88;;;;;;;16.32;52.42;101681.38;4900300;29;20491;-79
2021/01/03 04:34:58;;;;;;;5.28;4.13;;;;;;;16.32;52.26;101677.06;4900707;29;20046;-79
2021/01/03 04:37:23;;;;;;;5.10;3.95;;;;;;;16.31;52.17;101683.13;4893008;29;20115;-79
2021/01/03 04:39:49;;;;;;;5.15;4.10;;;;;;;16.32;52.41;101677.06;4900651;29;20032;-78
2021/01/03 04:42:20;;;;;;;6.13;4.00;;;;;;;16.28;52.49;101674.41;4904443;29;20091;-78
2021/01/03 04:44:48;;;;;;;5.63;4.00;;;;;;;16.31;52.20;101679.63;4902274;29;20055;-78
2021/01/03 04:47:13;;;;;;;7.93;4.35;;;;;;;16.30;52.19;101683.09;4928232;29;20043;-78
2021/01/03 04:49:50;;;;;;;4.05;3.25;;;;;;;16.30;52.13;101683.97;4923487;29;20054;-79
2021/01/03 04:52:53;;;;;;;4.55;3.80;;;;;;;16.30;52.42;101685.69;4939261;29;20024;-79
2021/01/03 04:55:21;;;;;;;6.53;3.83;;;;;;;16.29;52.15;101684.84;4931043;29;20046;-81
2021/01/03 04:58:01;;;;;;;5.00;3.78;;;;;;;16.29;52.44;101682.22;4929379;29;20047;-81
2021/01/03 05:00:35;;;;;;;6.05;3.88;;;;;;;16.29;52.24;101683.94;4931985;29;20082;-81
2021/01/03 05:03:35;;;;;;;4.95;3.90;;;;;;;16.28;52.30;101680.47;4946560;29;20501;-81
2021/01/03 05:06:06;;;;;;;4.80;4.07;;;;;;;16.27;52.29;101690.88;4930516;29;20035;-81
2021/01/03 05:08:41;;;;;;;5.55;4.00;;;;;;;16.28;52.29;101692.59;4940416;29;20048;-81
2021/01/03 05:11:13;;;;;;;5.05;3.72;;;;;;;16.27;52.07;101683.09;4945893;29;20497;-81
2021/01/03 05:14:03;;;;;;;5.15;3.80;;;;;;;16.27;52.20;101690.88;4951831;29;20066;-81
2021/01/03 05:16:28;;;;;;;5.07;3.90;;;;;;;16.27;52.26;101693.47;4930889;29;20430;-81
2021/01/03 05:18:54;;;;;;;5.75;4.38;;;;;;;16.27;51.94;101688.28;4916516;29;20083;-82
2021/01/03 05:21:19;;;;;;;5.22;3.70;;;;;;;16.27;52.18;101693.47;4912605;29;20053;-81
2021/01/03 05:24:03;;;;;;;4.63;3.67;;;;;;;16.25;52.05;101686.50;4913995;29;20506;-81
2021/01/03 05:26:37;;;;;;;4.70;3.72;;;;;;;16.27;51.97;101693.47;4927371;29;20051;-81
2021/01/03 05:29:03;;;;;;;4.40;3.38;;;;;;;16.25;51.99;101694.31;4937808;29;20031;-81
2021/01/03 05:31:29;;;;;;;4.05;3.47;;;;;;;16.22;51.73;101689.09;4924313;29;20049;-81
2021/01/03 05:34:05;;;;;;;5.13;3.70;;;;;;;16.24;51.98;101696.88;4909310;29;20479;-81
2021/01/03 05:36:30;;;;;;;4.53;3.55;;;;;;;16.24;51.84;101697.78;4926726;29;20088;-81
2021/01/03 05:38:56;;;;;;;4.95;3.80;;;;;;;16.23;51.96;101697.75;4918279;29;20024;-81
2021/01/03 05:41:52;;;;;;;4.82;3.80;;;;;;;16.22;52.08;101698.59;4933720;29;20055;-81
2021/01/03 05:44:26;;;;;;;4.78;3.78;;;;;;;16.23;51.96;101705.53;4929930;28;20039;-81
2021/01/03 05:47:01;;;;;;;5.10;4.07;;;;;;;16.22;51.69;101706.38;4919809;29;20043;-81
2021/01/03 05:49:29;;;;;;;5.18;3.40;;;;;;;16.23;52.08;101705.53;4927260;29;20428;-81
2021/01/03 05:52:06;;;;;;;5.78;3.83;;;;;;;16.21;52.18;101700.31;4913130;29;20383;-81
2021/01/03 05:54:35;;;;;;;4.65;3.55;;;;;;;16.22;52.15;101703.78;4934055;29;20470;-81
2021/01/03 05:57:06;;;;;;;4.50;3.78;;;;;;;16.22;52.00;101711.56;4931124;29;20031;-81
2021/01/03 05:59:34;;;;;;;4.68;3.65;;;;;;;16.21;51.85;101717.63;4943539;29;20023;-79
2021/01/03 06:02:05;;;;;;;4.30;3.70;;;;;;;16.20;51.96;101721.97;4921262;29;20110;-79
2021/01/03 06:04:31;;;;;;;4.53;3.60;;;;;;;16.21;52.00;101722.84;4919629;29;20034;-79
2021/01/03 06:06:59;;;;;;;4.60;3.70;;;;;;;16.19;51.95;101715.03;4897599;29;20106;-79
2021/01/03 06:09:34;;;;;;;4.97;3.72;;;;;;;16.20;52.14;101732.34;4928275;28;20081;-79
2021/01/03 06:12:17;;;;;;;5.15;4.07;;;;;;;16.20;52.05;101723.66;4926224;29;20019;-79
2021/01/03 06:14:45;;;;;;;4.88;3.97;;;;;;;16.19;52.06;101722.81;4928638;29;20043;-79
2021/01/03 06:17:13;;;;;;;5.20;3.60;;;;;;;16.19;51.98;101728.00;4933971;29;20035;-79
2021/01/03 06:20:08;;;;;;;4.78;3.80;;;;;;;16.17;51.85;101729.72;4922639;29;20273;-78
2021/01/03 06:22:44;;;;;;;4.22;3.42;;;;;;;16.18;51.76;101726.28;4922749;29;22340;-79
2021/01/03 06:25:18;;;;;;;4.65;3.53;;;;;;;16.18;51.87;101728.00;4919159;29;20055;-79
2021/01/03 06:27:46;;;;;;;4.80;3.80;;;;;;;16.19;51.76;101732.34;4936881;29;20098;-79
2021/01/03 06:30:15;;;;;;;4.45;3.72;;;;;;;16.17;51.72;101734.91;4919036;29;20031;-78
2021/01/03 06:33:20;;;;;;;5.47;3.85;;;;;;;16.18;52.19;101730.59;4900974;29;20110;-79
2021/01/03 06:35:56;;;;;;;5.13;4.00;;;;;;;16.17;51.74;101734.91;4918729;29;20041;-78
2021/01/03 06:38:51;;;;;;;5.30;3.90;;;;;;;16.17;52.01;101740.09;4935086;29;20575;-79
2021/01/03 06:41:23;;;;;;;;;;;;;;;16.18;51.69;101743.59;4932883;29;20036;-79
2021/01/03 06:44:15;;;;;;;4.78;3.80;;;;;;;16.16;51.54;101746.16;4935998;29;20365;-79
2021/01/03 06:47:02;;;;;;;4.65;3.95;;;;;;;16.16;52.05;101748.75;4935531;29;20521;-79
2021/01/03 06:49:40;;;;;;;5.40;3.92;;;;;;;16.16;51.88;101753.09;4904736;29;20047;-79
2021/01/03 06:52:27;;;;;;;4.75;3.78;;;;;;;16.16;51.94;101753.94;4922076;29;20039;-79
2021/01/03 06:55:10;;;;;;;4.72;3.35;;;;;;;16.15;51.74;101754.78;4938323;29;20031;-78
2021/01/03 06:57:42;;;;;;;;;;;;;;;16.17;51.68;101760.00;4921199;29;20126;-78
2021/01/03 07:00:15;;;;;;;5.20;4.10;;;;;;;16.15;51.73;101762.56;4931467;29;19915;-78
2021/01/03 07:03:02;;;;;;;6.68;3.67;;;;;;;16.16;51.84;101766.06;4922032;29;20028;-78
2021/01/03 07:05:28;;;;;;;7.32;4.10;;;;;;;16.14;51.86;101760.84;4908903;29;20059;-79
2021/01/03 07:08:00;;;;;;;4.88;3.65;;;;;;;16.14;51.79;101760.84;4926939;29;20034;-81
2021/01/03 07:10:41;;;;;;;5.10;3.88;;;;;;;16.14;51.74;101758.25;4943275;29;20565;-81
2021/01/03 07:13:28;;;;;;;5.15;3.85;;;;;;;16.15;51.71;101772.09;4925758;29;20027;-81
2021/01/03 07:15:55;;;;;;;4.90;3.97;;;;;;;16.14;51.58;101773.84;4930918;29;20027;-81
2021/01/03 07:18:27;;;;;;;4.47;3.45;;;;;;;16.14;51.69;101775.56;4903102;29;20031;-82
2021/01/03 07:21:11;;;;;;;4.85;3.90;;;;;;;16.14;51.55;101776.44;4949376;29;20493;-82
2021/01/03 07:23:43;;;;;;;5.47;4.03;;;;;;;16.14;51.76;101775.56;4941587;29;20039;-82
2021/01/03 07:29:31;;;;;;;5.30;4.05;;;;;;;16.15;51.84;101792.88;4935078;29;20034;-81
2021/01/03 07:32:04;;;;;;;5.32;3.88;;;;;;;16.13;52.01;101790.25;4926568;29;20127;-81
2021/01/03 07:34:33;;;;;;;5.30;3.72;;;;;;;16.14;51.91;101788.56;4940756;29;20098;-81
2021/01/03 07:37:13;;;;;;;5.03;3.75;;;;;;;16.14;52.11;101792.00;4951289;29;20032;-84
2021/01/03 07:39:55;;;;;;;9.18;4.15;;;;;;;16.15;52.02;101792.88;4954507;29;20035;-83
2021/01/03 07:42:26;;;;;;;7.25;3.97;;;;;;;16.16;52.22;101800.69;4937594;29;20057;-83
2021/01/03 07:44:55;;;;;;;5.43;3.80;;;;;;;16.16;52.13;101803.28;4940139;29;20034;-84
2021/01/03 07:47:44;;;;;;;5.28;4.05;;;;;;;16.17;52.08;101806.75;4956362;29;20056;-83
2021/01/03 07:50:24;;;;;;;5.47;4.28;;;;;;;16.17;52.35;101806.75;4941786;29;20032;-84
2021/01/03 07:52:59;;;;;;;6.18;4.30;;;;;;;16.17;52.28;101807.63;4931297;29;20028;-84
2021/01/03 07:55:28;;;;;;;5.90;4.28;;;;;;;16.17;52.32;101810.22;4951049;29;20035;-83
2021/01/03 07:58:05;;;;;;;5.82;4.40;;;;;;;16.17;52.47;101810.22;4933721;29;20110;-83
2021/01/03 08:00:33;;;;;;;5.65;4.55;;;;;;;16.19;52.36;101818.91;4936313;29;20042;-83
2021/01/03 08:03:07;;;;;;;6.18;4.35;;;;;;;16.19;52.39;101818.03;4951202;29;20032;-83
2021/01/03 08:05:35;;;;;;;5.55;3.97;;;;;;;16.18;52.31;101819.75;4925802;29;20111;-79
2021/01/03 08:08:12;;;;;;;4.80;3.88;;;;;;;16.19;52.44;101826.69;4913921;29;20387;-79
2021/01/03 08:10:37;;;;;;;5.32;4.18;;;;;;;16.20;52.23;101827.56;4920536;29;20039;-79
2021/01/03 08:13:33;;;;;;;5.47;4.47;;;;;;;16.18;52.38;101824.97;4905591;29;20036;-82
2021/01/03 08:16:00;;;;;;;5.55;4.47;;;;;;;16.18;52.24;101830.16;4943964;29;20443;-82
2021/01/03 08:18:29;;;;;;;6.43;4.30;;;;;;;16.21;52.35;101837.09;4939385;29;20028;-84
2021/01/03 08:21:05;;;;;;;5.22;4.25;;;;;;;16.20;52.45;101836.25;4938227;29;20076;-84
2021/01/03 08:23:34;;;;;;;5.88;4.63;;;;;;;16.21;52.57;101842.28;4956410;29;20051;-84
2021/01/03 08:26:15;;;;;;;6.00;4.75;;;;;;;16.20;52.37;101838.84;4939830;29;20119;-84
2021/01/03 08:28:50;;;;;;;5.40;4.22;;;;;;;16.20;52.58;101841.44;4939352;29;20033;-84
2021/01/03 08:31:16;;;;;;;6.05;4.78;;;;;;;16.21;52.64;101843.16;4942573;29;20039;-83
2021/01/03 08:33:42;;;;;;;5.82;4.60;;;;;;;16.20;52.49;101833.63;4937188;29;20079;-83
2021/01/03 08:36:29;;;;;;;5.88;4.47;;;;;;;16.21;52.42;101842.28;4954094;29;20035;-83
2021/01/03 08:39:04;;;;;;;6.13;4.28;;;;;;;16.22;52.51;101846.63;4939047;29;20011;-85
2021/01/03 08:41:35;;;;;;;5.60;4.40;;;;;;;16.21;52.64;101840.56;4948873;29;20068;-83
2021/01/03 08:44:03;;;;;;;5.47;4.13;;;;;;;16.21;52.35;101853.56;4928653;29;20043;-79
2021/01/03 08:46:33;;;;;;;4.75;4.18;;;;;;;16.23;52.46;101853.56;4926824;29;20128;-78
2021/01/03 08:49:03;;;;;;;5.47;4.43;;;;;;;16.24;52.52;101857.91;4924916;29;20122;-78
2021/01/03 08:51:29;;;;;;;5.55;4.25;;;;;;;16.21;52.46;101855.28;4922028;29;20020;-79
2021/01/03 08:54:02;;;;;;;5.13;4.28;;;;;;;16.22;52.64;101857.91;4905725;29;20035;-80
2021/01/03 08:56:34;;;;;;;6.15;4.35;;;;;;;16.22;52.68;101857.91;4899435;29;20031;-81
2021/01/03 08:59:00;;;;;;;5.57;4.13;;;;;;;16.22;52.80;101851.81;4911845;29;20039;-80
2021/01/03 09:01:29;;;;;;;5.65;4.30;;;;;;;16.22;52.57;101854.41;4922550;29;20039;-80
2021/01/03 09:04:04;;;;;;;5.28;4.65;;;;;;;16.24;52.60;101857.91;4920903;29;20028;-78
2021/01/03 09:06:40;;;;;;;4.90;4.32;;;;;;;16.24;52.64;101871.78;4935202;29;20054;-81
2021/01/03 09:09:15;;;;;;;5.40;4.20;;;;;;;16.26;52.64;101871.78;4919034;29;20028;-77
2021/01/03 09:11:57;;;;;;;5.00;4.25;;;;;;;16.24;52.47;101870.88;4938421;29;20040;-78
2021/01/03 09:14:54;;;;;;;10.95;5.75;;;;;;;16.25;52.62;101873.50;4912223;29;20554;-77
2021/01/03 09:17:22;;;;;;;11.02;6.20;;;;;;;16.25;52.62;101877.84;4904193;29;20122;-78
2021/01/03 09:20:25;;;;;;;10.00;5.93;;;;;;;16.35;52.40;101886.59;4945597;29;20058;-80
2021/01/03 09:23:13;;;;;;;24.83;9.05;;;;;;;16.49;52.07;101885.06;5195669;23;20957;-79
2021/01/03 09:25:41;;;;;;;14.70;7.65;;;;;;;16.54;52.13;101885.97;4870560;29;20405;-79
2021/01/03 09:28:13;;;;;;;15.93;7.90;;;;;;;16.62;52.33;101889.53;4848789;29;20470;-79
2021/01/03 09:30:43;;;;;;;13.02;7.40;;;;;;;16.64;52.42;101898.22;4860198;29;20532;-79
2021/01/03 09:33:32;;;;;;;19.52;7.45;;;;;;;16.66;52.51;101895.66;4844905;29;20532;-79
2021/01/03 09:36:22;;;;;;;13.80;7.63;;;;;;;16.70;52.40;101896.53;4863308;29;20089;-79
2021/01/03 09:38:55;;;;;;;13.77;7.32;;;;;;;16.71;52.53;101898.31;4859025;29;20441;-78
2021/01/03 09:41:29;;;;;;;;;;;;;;;16.69;52.36;101895.69;4878002;29;20061;-82
2021/01/03 09:59:26;;;;;;;9.75;6.28;;;;;;;16.77;52.28;101911.38;5879910;23;20023;-81
2021/01/03 10:02:33;;;;;;;14.20;6.60;;;;;;;16.77;52.12;101913.97;5039459;23;20047;-82
2021/01/03 10:05:44;;;;;;;7.70;5.75;;;;;;;16.76;52.19;101899.22;4919020;29;20048;-82
2021/01/03 10:08:33;;;;;;;10.30;6.40;;;;;;;16.78;52.26;101915.69;4891028;29;20073;-81
2021/01/03 10:11:30;;;;;;;9.18;6.32;;;;;;;16.78;52.02;101907.91;4892345;29;20068;-82
2021/01/03 10:14:32;;;;;;;9.77;6.20;;;;;;;16.80;52.08;101911.44;4921149;29;20040;-82
2021/01/03 10:17:43;;;;;;;11.20;6.15;;;;;;;16.80;52.04;101906.22;4940429;29;20063;-82
2021/01/03 10:20:46;;;;;;;9.00;6.03;;;;;;;16.83;51.92;101919.25;4879213;29;20570;-82
2021/01/03 10:23:51;;;;;;;9.90;5.53;;;;;;;16.84;52.24;101919.28;4947732;29;20011;-80
2021/01/03 10:26:28;;;;;;;9.05;6.05;;;;;;;16.88;51.99;101919.31;4934049;29;20099;-81
2021/01/03 10:32:17;;;;;;;7.32;5.35;;;;;;;16.94;51.81;101922.84;4948321;29;20070;-80
2021/01/03 10:34:43;;;;;;;9.02;6.13;;;;;;;16.95;51.68;101922.00;4945913;29;20027;-81
2021/01/03 10:37:08;;;;;;;8.48;5.53;;;;;;;16.98;51.79;101914.19;4929738;29;20047;-81
2021/01/03 10:39:33;;;;;;;6.85;5.47;;;;;;;17.00;51.70;101917.69;4900511;29;20036;-81
2021/01/03 10:42:03;;;;;;;8.27;5.50;;;;;;;17.02;51.66;101910.78;4921135;29;20036;-79
2021/01/03 10:44:28;;;;;;;11.00;5.80;;;;;;;17.19;52.60;101910.09;4943914;29;20039;-79
2021/01/03 10:46:54;;;;;;;9.85;5.75;;;;;;;17.19;52.82;101910.09;4933904;29;20074;-79
2021/01/03 10:49:20;;;;;;;6.82;5.30;;;;;;;17.15;52.37;101906.56;4918318;29;20402;-78
2021/01/03 10:51:46;;;;;;;7.47;5.18;;;;;;;17.12;52.25;101911.75;4908859;29;20032;-78
2021/01/03 10:54:32;;;;;;;7.35;5.25;;;;;;;17.09;52.34;101909.09;4906733;29;20020;-80
2021/01/03 10:56:58;;;;;;;11.45;5.72;;;;;;;17.09;53.23;101903.91;4932550;29;20107;-79
2021/01/03 10:59:25;;;;;;;7.68;5.63;;;;;;;17.03;53.09;101904.75;4902847;29;20035;-78
2021/01/03 11:01:51;;;;;;;7.40;5.65;;;;;;;16.98;53.28;101908.13;4941175;29;20407;-79
2021/01/03 11:04:19;;;;;;;6.45;4.72;;;;;;;16.94;53.36;101904.66;4918862;29;20131;-78
2021/01/03 11:06:47;;;;;;;6.25;4.88;;;;;;;16.93;53.21;101902.03;4917616;29;20020;-78
2021/01/03 11:09:17;;;;;;;6.53;4.85;;;;;;;16.91;53.41;101904.59;4932911;29;20039;-79
2021/01/03 11:11:43;;;;;;;9.65;5.30;;;;;;;16.91;53.47;101898.53;4923836;29;20031;-79
2021/01/03 11:14:11;;;;;;;5.97;4.97;;;;;;;16.92;53.36;101902.88;4924133;29;20050;-78
2021/01/03 11:16:42;;;;;;;6.57;4.60;;;;;;;16.93;53.49;101904.63;4921351;29;20729;-78
2021/01/03 11:19:12;;;;;;;6.88;4.90;;;;;;;16.90;53.53;101891.59;4923674;29;20136;-78
2021/01/03 11:21:37;;;;;;;7.32;4.60;;;;;;;16.91;53.50;101894.22;4937800;29;20032;-78
2021/01/03 11:24:06;;;;;;;6.43;4.70;;;;;;;16.92;53.32;101888.16;4890736;29;20079;-78
2021/01/03 11:26:38;;;;;;;6.53;4.47;;;;;;;16.92;53.54;101903.78;4919023;29;20364;-78
2021/01/03 11:29:06;;;;;;;7.47;4.45;;;;;;;16.93;53.45;101899.44;4919380;29;20047;-79
2021/01/03 11:31:40;;;;;;;6.60;4.90;;;;;;;16.92;53.32;101898.56;4921232;29;20110;-78
2021/01/03 11:34:08;;;;;;;6.32;4.82;;;;;;;16.90;53.56;101896.78;4916753;29;20019;-78
2021/01/03 11:36:35;;;;;;;5.18;4.38;;;;;;;16.90;53.67;101895.06;4923387;29;20071;-78
2021/01/03 11:39:08;;;;;;;6.88;4.43;;;;;;;16.91;53.60;101902.00;4920078;29;22258;-81
2021/01/03 11:41:34;;;;;;;5.57;4.50;;;;;;;16.88;53.68;101893.31;4916682;29;20024;-81
2021/01/03 11:44:00;;;;;;;5.47;4.30;;;;;;;16.88;53.77;101891.59;4921712;29;20036;-79
2021/01/03 11:46:25;;;;;;;5.15;4.15;;;;;;;16.90;53.62;101897.69;4905547;29;20118;-79
2021/01/03 11:48:51;;;;;;;6.43;4.38;;;;;;;16.92;53.57;101900.28;4898516;29;20486;-79
2021/01/03 11:51:17;;;;;;;6.22;4.55;;;;;;;16.91;53.76;101896.81;4919782;29;20036;-79
2021/01/03 11:53:42;;;;;;;5.88;4.53;;;;;;;16.92;53.60;101898.56;4920683;29;20023;-79
2021/01/03 11:56:08;;;;;;;6.15;4.25;;;;;;;16.92;53.56;101893.38;4939321;29;20050;-81
2021/01/03 11:58:33;;;;;;;5.28;4.30;;;;;;;16.93;53.69;101894.22;4905226;29;20075;-81
2021/01/03 12:00:59;;;;;;;4.70;4.20;;;;;;;16.93;53.44;101892.50;4907632;29;20055;-81
2021/01/03 12:03:26;;;;;;;5.70;4.00;;;;;;;16.94;53.56;101894.25;4916480;29;20070;-80
2021/01/03 12:05:51;;;;;;;6.25;4.80;;;;;;;16.93;53.83;101889.91;4912949;29;20024;-81
2021/01/03 12:08:16;;;;;;;5.32;4.55;;;;;;;16.94;53.96;101894.25;4894715;29;20028;-81
2021/01/03 12:10:42;;;;;;;6.97;4.35;;;;;;;16.94;53.58;101886.47;4917265;29;20036;-81